Ardenvoir, Washington
Current Conditions -  °F | °C
As of 3:12 AM on Wednesday 26 Nov 2014 (Local Time) from KEAT Reporting Station
Haze Haze  
Wind Chill: 33°   Ceiling: 1700
Heat Index: 38°   Visibility: 1mi
Dew Point: 35°   Wind: 6mph
Humidity: 89%   Direction: 90°E
Pressure: 30.18"   Gusts: NA
Location:  47.74°N, 120.37°W
Report Text: KEAT 261112Z AUTO 09005KT 1SM BR OVC017 03/02 A3018 RMK AO2 T00330017
Loading
Personal Weather Stations






























Interactive Weather Map New forecast layout! Learn more

10-Day Weather Forecast

Advertisements
Track Severe Weather on mobile